Time;durP1;ratioP1;P1;durP2;ratioP2;P2;SDS_P1;SDS_P2;PMS_P1;PMS_P2;Temp;Humidity;BMP_temperature;BMP_pressure;BME280_temperature;BME280_humidity;BME280_pressure;Samples;Min_cycle;Max_cycle;Signal;HPM_P1;HPM_P2
2022/08/20 00:00:45;;;;;;;11.40;5.22;;;;;;;24.91;43.39;93568.75;5063319;28;20338;-75
2022/08/20 00:03:27;;;;;;;10.50;4.70;;;;;;;24.98;43.29;93565.19;5063589;28;20036;-75
2022/08/20 00:06:21;;;;;;;7.25;4.72;;;;;;;24.97;43.81;93569.09;5063385;28;20047;-75
2022/08/20 00:08:48;;;;;;;10.77;4.70;;;;;;;24.92;44.11;93566.84;5062558;28;20280;-75
2022/08/20 00:11:21;;;;;;;6.72;4.65;;;;;;;24.87;43.91;93557.16;5063181;28;20033;-73
2022/08/20 00:13:50;;;;;;;8.63;4.47;;;;;;;24.84;44.23;93568.88;5063061;28;20210;-72
2022/08/20 00:16:18;;;;;;;9.52;5.40;;;;;;;24.79;44.11;93566.59;5062752;28;20032;-73
2022/08/20 00:18:44;;;;;;;10.02;4.78;;;;;;;24.79;44.12;93574.78;5063193;28;20102;-73
2022/08/20 00:21:12;;;;;;;9.52;4.93;;;;;;;24.77;45.26;93572.50;5063108;28;20032;-73
2022/08/20 00:23:40;;;;;;;10.05;4.93;;;;;;;24.73;44.76;93582.66;5063245;28;20033;-74
2022/08/20 00:26:09;;;;;;;10.60;5.53;;;;;;;24.72;44.50;93583.06;5063109;28;20021;-74
2022/08/20 00:28:34;;;;;;;10.70;5.50;;;;;;;24.64;44.40;93590.56;5063298;28;20033;-73
2022/08/20 00:31:04;;;;;;;13.73;5.85;;;;;;;24.57;44.40;93585.22;5061622;28;20032;-74
2022/08/20 00:33:30;;;;;;;10.70;5.20;;;;;;;24.48;45.29;93574.00;5063144;28;20096;-75
2022/08/20 00:35:56;;;;;;;10.70;5.18;;;;;;;24.40;45.04;93573.31;5062975;28;20096;-74
2022/08/20 00:38:22;;;;;;;8.32;5.10;;;;;;;24.32;45.53;93574.59;5062836;28;20032;-74
2022/08/20 00:40:55;;;;;;;8.27;4.57;;;;;;;24.30;45.60;93579.66;5062855;28;20188;-74
2022/08/20 00:43:37;;;;;;;6.35;4.90;;;;;;;24.28;46.00;93584.75;5062912;28;20246;-74
2022/08/20 00:46:07;;;;;;;12.75;5.07;;;;;;;24.24;45.85;93584.78;5062884;28;20096;-74
2022/08/20 00:48:37;;;;;;;7.60;5.00;;;;;;;24.21;46.14;93589.09;5063039;28;20017;-74
2022/08/20 00:51:15;;;;;;;8.70;5.25;;;;;;;24.21;46.84;93575.47;5062565;28;20037;-74
2022/08/20 00:53:42;;;;;;;9.32;5.00;;;;;;;24.21;46.65;93575.47;5062870;28;20028;-74
2022/08/20 00:56:10;;;;;;;8.20;5.22;;;;;;;24.20;47.08;93573.97;5062942;28;20017;-74
2022/08/20 00:58:37;;;;;;;8.70;5.28;;;;;;;24.14;46.96;93575.59;5063021;28;20207;-74
2022/08/20 01:01:05;;;;;;;11.60;5.38;;;;;;;24.13;47.37;93560.41;5062825;28;20017;-74
2022/08/20 01:03:32;;;;;;;14.52;5.68;;;;;;;24.07;47.46;93562.03;5062627;28;20338;-74
2022/08/20 01:05:57;;;;;;;11.75;5.22;;;;;;;23.99;47.72;93557.84;5062684;28;20028;-75
2022/08/20 01:08:25;;;;;;;12.25;5.65;;;;;;;23.89;47.92;93554.06;5062805;28;20025;-75
2022/08/20 01:10:58;;;;;;;12.13;5.72;;;;;;;23.77;48.03;93547.22;5062516;28;20024;-75
2022/08/20 01:13:25;;;;;;;8.70;5.15;;;;;;;23.72;48.00;93539.44;5062877;28;20025;-74
2022/08/20 01:15:53;;;;;;;9.05;4.82;;;;;;;23.68;48.35;93541.44;5062751;28;20036;-73
2022/08/20 01:18:23;;;;;;;8.15;5.78;;;;;;;23.61;48.43;93536.84;5062552;28;20323;-73
2022/08/20 01:20:53;;;;;;;7.75;5.50;;;;;;;23.55;48.34;93541.19;5062548;28;20017;-73
2022/08/20 01:23:31;;;;;;;12.93;5.10;;;;;;;23.53;48.54;93540.00;5062685;28;20032;-73
2022/08/20 01:26:10;;;;;;;10.40;5.80;;;;;;;23.47;48.74;93533.47;5062577;28;20290;-73
2022/08/20 01:28:43;;;;;;;10.38;5.78;;;;;;;23.43;48.88;93525.34;5065227;28;20040;-74
2022/08/20 01:31:12;;;;;;;9.73;5.38;;;;;;;23.39;48.68;93538.22;5066347;28;20044;-74
2022/08/20 01:33:39;;;;;;;9.63;5.40;;;;;;;23.34;48.35;93542.13;5066476;28;20231;-74
2022/08/20 01:36:05;;;;;;;8.98;5.38;;;;;;;23.29;48.37;93541.81;5066365;28;20073;-74
2022/08/20 01:38:32;;;;;;;7.65;5.50;;;;;;;23.23;48.59;93546.91;5066375;28;20075;-73
2022/08/20 01:41:38;;;;;;;8.15;4.95;;;;;;;23.18;48.90;93553.53;5066264;28;20025;-74
2022/08/20 01:44:04;;;;;;;12.70;5.53;;;;;;;23.15;49.55;93531.81;5063265;28;20033;-74
2022/08/20 01:46:35;;;;;;;9.38;5.60;;;;;;;23.13;49.68;93531.44;5066207;28;20025;-74
2022/08/20 01:49:09;;;;;;;10.18;5.15;;;;;;;23.10;50.07;93527.59;5066068;28;20035;-74
2022/08/20 01:51:34;;;;;;;7.10;4.82;;;;;;;23.08;50.29;93512.84;5066124;28;20067;-75
2022/08/20 01:54:00;;;;;;;8.52;5.55;;;;;;;23.02;50.95;93520.66;5066099;28;20020;-74
2022/08/20 01:56:29;;;;;;;11.63;5.60;;;;;;;22.87;50.82;93519.94;5066051;28;20028;-73
2022/08/20 01:58:57;;;;;;;17.60;6.13;;;;;;;22.85;51.27;93516.88;5065946;28;20091;-73
2022/08/20 02:01:39;;;;;;;8.13;5.35;;;;;;;22.86;50.77;93520.34;5065902;28;20017;-73
2022/08/20 02:04:08;;;;;;;8.77;5.27;;;;;;;22.89;50.82;93520.31;5065983;28;20024;-73
2022/08/20 02:06:37;;;;;;;12.23;5.63;;;;;;;22.94;50.77;93533.50;5065892;28;20057;-74
2022/08/20 02:09:03;;;;;;;9.50;5.88;;;;;;;22.96;50.55;93522.22;5065706;28;20029;-73
2022/08/20 02:11:30;;;;;;;9.43;5.65;;;;;;;22.97;50.41;93524.53;5065718;28;20219;-73
2022/08/20 02:14:19;;;;;;;10.23;5.75;;;;;;;22.98;50.32;93528.81;5065598;28;20075;-74
2022/08/20 02:16:49;;;;;;;14.77;5.55;;;;;;;22.95;49.99;93531.56;5065736;28;20067;-74
2022/08/20 02:19:22;;;;;;;9.05;5.38;;;;;;;22.94;50.21;93536.22;5065644;28;20028;-74
2022/08/20 02:21:54;;;;;;;9.13;5.40;;;;;;;22.88;50.75;93531.59;5065641;28;20021;-73
2022/08/20 02:24:20;;;;;;;11.05;5.25;;;;;;;22.81;50.91;93532.41;5065478;28;20051;-74
2022/08/20 02:26:46;;;;;;;10.82;5.55;;;;;;;22.79;51.12;93532.81;5065462;28;20029;-74
2022/08/20 02:29:12;;;;;;;12.70;6.13;;;;;;;22.77;50.53;93532.44;5065185;28;20032;-74
2022/08/20 02:31:39;;;;;;;8.27;5.57;;;;;;;22.80;50.20;93536.31;5065636;28;20053;-75
2022/08/20 02:34:08;;;;;;;14.02;6.68;;;;;;;22.82;50.96;93533.97;5065446;28;20028;-75
2022/08/20 02:36:35;;;;;;;10.65;5.78;;;;;;;22.82;50.19;93536.69;5065466;28;20029;-74
2022/08/20 02:39:03;;;;;;;9.25;5.53;;;;;;;22.79;50.46;93532.81;5064910;28;20056;-75
2022/08/20 02:41:28;;;;;;;8.43;5.60;;;;;;;22.76;51.37;93528.19;5065084;28;20106;-74
2022/08/20 02:43:53;;;;;;;13.32;5.75;;;;;;;22.79;51.67;93540.19;5065137;28;20024;-75
2022/08/20 02:46:19;;;;;;;10.07;5.68;;;;;;;22.73;50.41;93531.69;5065035;28;20096;-74
2022/08/20 02:48:44;;;;;;;8.82;6.07;;;;;;;22.74;50.65;93532.47;5064913;28;20265;-73
2022/08/20 02:51:10;;;;;;;11.63;5.68;;;;;;;22.69;50.88;93535.59;5064759;28;20037;-74
2022/08/20 02:53:38;;;;;;;13.50;5.72;;;;;;;22.71;50.95;93538.69;5065400;28;20092;-74
2022/08/20 02:56:06;;;;;;;11.63;5.75;;;;;;;22.73;50.61;93541.78;5065145;28;20227;-74
2022/08/20 02:58:34;;;;;;;9.50;5.72;;;;;;;22.73;50.32;93542.56;5064877;28;20016;-74
2022/08/20 03:01:00;;;;;;;11.32;5.82;;;;;;;22.73;50.26;93547.22;5064801;28;20041;-75
2022/08/20 03:03:26;;;;;;;13.02;5.75;;;;;;;22.69;50.82;93543.75;5064868;28;20071;-75
2022/08/20 03:05:55;;;;;;;10.48;5.78;;;;;;;22.65;50.68;93551.91;5064746;28;20028;-75
2022/08/20 03:08:22;;;;;;;15.15;6.00;;;;;;;22.56;50.69;93544.22;5064861;28;20028;-74
2022/08/20 03:10:49;;;;;;;9.30;5.63;;;;;;;22.54;51.23;93543.84;5064561;28;20028;-73
2022/08/20 03:13:15;;;;;;;10.10;5.95;;;;;;;22.52;50.88;93548.91;5064525;28;20231;-74
2022/08/20 03:15:47;;;;;;;8.35;5.43;;;;;;;22.52;50.98;93546.19;5064269;28;20036;-73
2022/08/20 03:18:13;;;;;;;9.05;5.60;;;;;;;22.51;51.64;93547.38;5064495;28;20020;-73
2022/08/20 03:20:39;;;;;;;10.00;5.85;;;;;;;22.54;51.49;93552.00;5064428;28;20032;-74
2022/08/20 03:23:04;;;;;;;11.55;5.97;;;;;;;22.49;52.14;93544.28;5064713;28;20252;-74
2022/08/20 03:25:30;;;;;;;10.25;5.40;;;;;;;22.46;52.11;93547.00;5064172;28;20025;-74
2022/08/20 03:27:56;;;;;;;9.55;5.50;;;;;;;22.44;51.89;93552.81;5064372;28;20044;-74
2022/08/20 03:30:24;;;;;;;11.70;5.80;;;;;;;22.44;52.67;93552.81;5064110;28;20092;-74
2022/08/20 03:32:50;;;;;;;12.55;6.03;;;;;;;22.34;53.70;93551.69;5064246;28;20051;-73
2022/08/20 03:35:17;;;;;;;9.73;6.20;;;;;;;22.33;53.38;93552.13;5064056;28;20025;-75
2022/08/20 03:37:43;;;;;;;12.32;5.47;;;;;;;22.28;52.88;93555.22;5064069;28;20044;-73
2022/08/20 03:40:12;;;;;;;13.50;6.28;;;;;;;22.26;53.23;93552.13;5064018;28;20032;-75
2022/08/20 03:42:40;;;;;;;7.47;5.35;;;;;;;22.24;53.03;93563.38;5064308;28;20029;-74
2022/08/20 03:45:07;;;;;;;9.55;5.63;;;;;;;22.21;52.09;93567.63;5064010;28;20323;-74
2022/08/20 03:47:32;;;;;;;8.57;5.85;;;;;;;22.15;52.93;93563.00;5063859;28;20066;-73
2022/08/20 03:50:00;;;;;;;11.57;6.07;;;;;;;22.16;53.60;93559.13;5063609;28;20044;-75
2022/08/20 03:52:27;;;;;;;9.30;6.28;;;;;;;22.15;53.96;93561.06;5063061;28;20024;-75
2022/08/20 03:54:52;;;;;;;14.48;6.05;;;;;;;22.17;54.31;93566.88;5063570;28;20084;-74
2022/08/20 03:57:18;;;;;;;10.75;6.18;;;;;;;22.18;54.25;93568.41;5063743;28;20028;-75
2022/08/20 03:59:43;;;;;;;8.98;6.35;;;;;;;22.13;54.43;93571.53;5062670;28;20310;-73
2022/08/20 04:02:10;;;;;;;14.05;6.35;;;;;;;22.09;54.26;93562.63;5063732;28;20013;-73
2022/08/20 04:04:35;;;;;;;8.70;4.85;;;;;;;22.08;53.56;93571.94;5063624;28;20218;-73
2022/08/20 04:07:09;;;;;;;10.20;6.03;;;;;;;22.08;53.52;93576.59;5063703;28;20077;-71
2022/08/20 04:09:36;;;;;;;9.70;5.40;;;;;;;22.08;53.50;93573.88;5063589;28;20016;-72
2022/08/20 04:12:02;;;;;;;10.95;5.57;;;;;;;22.10;53.19;93574.25;5063274;28;20040;-74
2022/08/20 04:14:27;;;;;;;9.13;5.57;;;;;;;22.15;52.74;93569.22;5063598;28;20036;-75
2022/08/20 04:16:53;;;;;;;12.00;6.10;;;;;;;22.10;52.40;93580.44;5063498;28;20052;-74
2022/08/20 04:19:20;;;;;;;13.98;7.72;;;;;;;22.10;54.05;93576.97;5063393;28;20100;-74
2022/08/20 04:21:47;;;;;;;9.45;5.50;;;;;;;22.13;53.35;93571.53;5063348;28;20335;-74
2022/08/20 04:24:14;;;;;;;14.55;5.70;;;;;;;22.13;52.91;93566.09;5063296;28;20170;-74
2022/08/20 04:26:40;;;;;;;9.60;6.47;;;;;;;22.16;52.57;93576.16;5063165;28;20067;-74
2022/08/20 04:29:06;;;;;;;9.20;6.32;;;;;;;22.23;54.19;93587.03;5063461;28;20021;-74
2022/08/20 04:31:32;;;;;;;7.32;5.75;;;;;;;22.21;53.19;93583.16;5062956;28;20096;-73
2022/08/20 04:34:02;;;;;;;12.02;6.10;;;;;;;22.13;52.88;93576.19;5063071;28;20226;-74
2022/08/20 04:36:28;;;;;;;11.15;6.50;;;;;;;22.12;53.09;93580.84;5063082;28;20235;-74
2022/08/20 04:38:54;;;;;;;7.93;5.45;;;;;;;22.16;52.57;93578.88;5063075;28;20099;-74
2022/08/20 04:41:20;;;;;;;14.20;5.90;;;;;;;22.17;53.58;93580.44;5062885;28;20322;-74
2022/08/20 04:43:46;;;;;;;18.42;6.75;;;;;;;22.21;53.25;93580.44;5063102;28;20330;-73
2022/08/20 04:46:12;;;;;;;13.82;6.28;;;;;;;22.22;53.14;93584.69;5063045;28;20071;-74
2022/08/20 04:48:39;;;;;;;12.30;6.68;;;;;;;22.25;53.39;93589.38;5062941;28;20048;-74
2022/08/20 04:51:07;;;;;;;10.20;6.53;;;;;;;22.29;53.66;93581.19;5062593;28;20056;-74
2022/08/20 04:53:33;;;;;;;11.65;6.18;;;;;;;22.38;54.67;93584.25;5062830;28;20024;-75
2022/08/20 04:56:00;;;;;;;12.23;6.10;;;;;;;22.43;54.67;93578.44;5062649;28;20095;-73
2022/08/20 04:58:32;;;;;;;10.02;6.65;;;;;;;22.55;54.35;93572.56;5062856;28;20020;-74
2022/08/20 05:01:00;;;;;;;14.48;6.97;;;;;;;22.64;53.90;93572.88;5062696;28;20044;-74
2022/08/20 05:03:26;;;;;;;8.77;6.10;;;;;;;22.75;53.42;93569.31;5062356;28;20037;-74
2022/08/20 05:05:52;;;;;;;11.82;6.07;;;;;;;22.86;53.61;93574.69;5062738;28;20303;-74
2022/08/20 05:08:20;;;;;;;12.55;6.40;;;;;;;22.95;53.97;93583.94;5062570;28;20025;-73
2022/08/20 05:10:46;;;;;;;10.43;6.28;;;;;;;22.99;52.56;93579.25;5062600;28;20032;-74
2022/08/20 05:13:11;;;;;;;9.95;6.80;;;;;;;23.07;52.65;93587.41;5062850;28;20028;-75
2022/08/20 05:15:38;;;;;;;13.25;6.30;;;;;;;23.11;52.98;93590.88;5062850;28;20024;-76
2022/08/20 05:18:06;;;;;;;14.60;6.45;;;;;;;23.13;52.61;93588.53;5062262;28;20327;-74
2022/08/20 05:20:34;;;;;;;19.10;6.55;;;;;;;23.20;52.26;93589.25;5060778;28;20167;-75
2022/08/20 05:23:01;;;;;;;13.25;7.00;;;;;;;23.26;52.85;93588.81;5062258;28;20040;-75
2022/08/20 05:25:28;;;;;;;16.83;6.90;;;;;;;23.31;53.39;93591.88;5061035;28;20219;-75
2022/08/20 05:28:06;;;;;;;11.82;6.35;;;;;;;23.42;52.60;93580.91;5062452;28;20040;-75
2022/08/20 05:30:34;;;;;;;14.57;6.72;;;;;;;23.46;52.71;93573.50;5061998;28;20029;-75
2022/08/20 05:33:00;;;;;;;28.50;8.55;;;;;;;23.54;51.78;93572.25;5060879;28;20285;-74
2022/08/20 05:35:26;;;;;;;9.68;6.38;;;;;;;23.62;51.50;93562.09;5060246;28;20025;-74
2022/08/20 05:37:52;;;;;;;17.83;6.75;;;;;;;23.70;51.39;93562.81;5061380;28;20069;-73
2022/08/20 05:40:18;;;;;;;13.73;6.97;;;;;;;23.70;50.98;93569.00;5061514;28;20029;-73
2022/08/20 05:42:44;;;;;;;10.27;6.50;;;;;;;23.71;51.61;93556.97;5061834;28;20051;-75
2022/08/20 05:45:10;;;;;;;14.63;7.47;;;;;;;23.73;51.52;93573.66;5062120;28;20359;-74
2022/08/20 05:47:39;;;;;;;14.85;6.80;;;;;;;23.78;51.65;93575.19;5061896;28;20088;-72
2022/08/20 05:50:06;;;;;;;12.35;6.63;;;;;;;23.73;51.92;93570.94;5061835;28;20261;-74
2022/08/20 05:52:31;;;;;;;14.90;6.35;;;;;;;23.72;52.55;93574.81;5062211;28;20035;-75
2022/08/20 05:54:57;;;;;;;14.60;7.13;;;;;;;23.73;51.20;93572.84;5061924;28;20378;-76
2022/08/20 05:57:22;;;;;;;29.33;7.07;;;;;;;23.71;51.53;93565.13;5061776;28;20021;-74
2022/08/20 05:59:48;;;;;;;13.80;6.80;;;;;;;23.74;51.39;93558.09;5062003;28;20028;-73
2022/08/20 06:04:57;;;;;;;15.57;7.50;;;;;;;23.79;51.59;93558.47;5062052;28;20024;-73
2022/08/20 06:07:23;;;;;;;16.23;7.18;;;;;;;23.77;51.01;93568.19;5061792;28;20029;-74
2022/08/20 06:09:49;;;;;;;11.63;6.78;;;;;;;23.78;50.64;93565.06;5061593;28;20028;-74
2022/08/20 06:12:15;;;;;;;20.02;7.22;;;;;;;23.83;50.88;93559.19;5061463;28;20388;-73
2022/08/20 06:14:41;;;;;;;18.95;7.53;;;;;;;23.93;50.86;93573.09;5062439;28;20104;-74
2022/08/20 06:17:10;;;;;;;21.20;7.07;;;;;;;23.95;50.66;93568.78;5065488;28;20105;-76
2022/08/20 06:19:38;;;;;;;14.05;7.93;;;;;;;24.06;50.68;93568.69;5065399;28;20035;-75
2022/08/20 06:22:05;;;;;;;13.32;6.15;;;;;;;24.20;50.59;93573.97;5064943;28;20061;-74
2022/08/20 06:24:31;;;;;;;14.15;7.22;;;;;;;24.27;50.08;93572.31;5065006;28;20021;-74
2022/08/20 06:26:59;;;;;;;17.20;7.35;;;;;;;24.29;48.96;93570.72;5065103;28;20270;-74
2022/08/20 06:29:26;;;;;;;18.70;6.75;;;;;;;24.37;48.37;93561.28;5064869;28;20020;-74
2022/08/20 06:31:51;;;;;;;16.33;7.30;;;;;;;24.50;47.89;93564.25;5064788;28;20037;-74
2022/08/20 06:34:17;;;;;;;10.73;6.13;;;;;;;24.68;48.20;93563.28;5064980;28;20051;-73
2022/08/20 06:36:45;;;;;;;14.85;6.80;;;;;;;24.83;47.32;93570.06;5064993;28;20239;-73
2022/08/20 06:39:12;;;;;;;13.98;6.50;;;;;;;24.95;47.58;93566.78;5064691;28;20025;-73
2022/08/20 06:41:37;;;;;;;16.35;7.03;;;;;;;25.05;48.53;93567.78;5064653;28;20254;-73
2022/08/20 06:44:06;;;;;;;24.15;6.88;;;;;;;25.17;48.21;93561.75;5064449;28;20027;-73
2022/08/20 06:46:32;;;;;;;21.20;7.47;;;;;;;25.29;47.94;93563.16;5064392;28;20021;-71
2022/08/20 06:48:57;;;;;;;10.88;6.15;;;;;;;25.42;47.56;93561.41;5064293;28;20044;-74
2022/08/20 06:51:23;;;;;;;13.88;7.30;;;;;;;25.56;47.39;93557.66;5064061;28;20041;-74
2022/08/20 06:53:48;;;;;;;20.02;6.55;;;;;;;25.65;47.32;93557.13;5062994;28;20033;-73
2022/08/20 06:56:14;;;;;;;16.10;6.97;;;;;;;25.81;47.95;93559.94;5064099;28;20096;-73
2022/08/20 06:58:39;;;;;;;21.70;7.70;;;;;;;25.94;47.94;93556.63;5064240;28;20033;-73
2022/08/20 07:01:07;;;;;;;19.17;7.88;;;;;;;26.08;47.76;93545.44;5064174;28;20016;-74
2022/08/20 07:03:33;;;;;;;14.93;7.32;;;;;;;26.21;47.71;93543.59;5064203;28;20028;-74
2022/08/20 07:05:58;;;;;;;15.05;7.28;;;;;;;26.34;46.92;93545.72;5064056;28;20017;-74
2022/08/20 07:08:24;;;;;;;21.75;7.72;;;;;;;26.40;47.59;93538.56;5064183;28;20016;-74
2022/08/20 07:10:50;;;;;;;16.00;7.13;;;;;;;26.52;46.90;93539.88;5064116;28;20067;-74
2022/08/20 07:13:15;;;;;;;22.17;6.75;;;;;;;26.65;46.41;93538.06;5064017;28;20032;-74
2022/08/20 07:15:43;;;;;;;16.20;7.55;;;;;;;26.69;46.68;93544.22;5064156;28;20040;-74
2022/08/20 07:18:10;;;;;;;14.50;7.22;;;;;;;26.81;46.31;93540.84;5064010;28;20021;-74
2022/08/20 07:20:38;;;;;;;18.20;6.55;;;;;;;26.84;46.27;93536.47;5064158;28;20021;-74
2022/08/20 07:23:04;;;;;;;13.32;6.75;;;;;;;26.92;45.90;93537.09;5063812;28;20021;-73
2022/08/20 07:25:32;;;;;;;13.93;7.07;;;;;;;27.01;45.82;93538.03;5063710;28;20196;-74
2022/08/20 07:28:06;;;;;;;17.13;7.18;;;;;;;27.13;45.23;93544.00;5063859;28;20235;-74
2022/08/20 07:33:16;;;;;;;11.25;6.85;;;;;;;27.23;44.72;93532.06;5064098;28;20051;-74
2022/08/20 07:35:42;;;;;;;10.85;6.43;;;;;;;27.34;44.68;93532.59;5063823;28;20319;-75
2022/08/20 07:38:16;;;;;;;13.55;7.40;;;;;;;27.47;45.04;93542.84;5063810;28;20127;-76
2022/08/20 07:40:42;;;;;;;18.20;8.57;;;;;;;27.55;44.83;93546.94;5063798;28;20080;-76
2022/08/20 07:43:09;;;;;;;11.65;7.05;;;;;;;27.65;44.28;93537.69;5064004;28;20091;-75
2022/08/20 07:45:36;;;;;;;14.52;7.13;;;;;;;27.73;43.41;93541.03;5063563;28;20088;-75
2022/08/20 07:48:11;;;;;;;19.90;7.65;;;;;;;27.81;43.16;93540.41;5063925;28;20047;-75
2022/08/20 07:50:38;;;;;;;10.65;6.70;;;;;;;27.90;43.38;93534.31;5063353;28;20132;-75
2022/08/20 07:53:04;;;;;;;15.88;7.60;;;;;;;27.97;42.93;93533.38;5063438;28;20033;-72
2022/08/20 07:55:30;;;;;;;13.65;6.63;;;;;;;28.06;43.31;93535.50;5063021;28;20021;-71
2022/08/20 07:57:57;;;;;;;11.43;6.70;;;;;;;28.11;42.51;93534.94;5062807;28;20083;-71
2022/08/20 08:00:24;;;;;;;10.55;6.78;;;;;;;28.18;42.55;93535.53;5062995;28;20315;-72
2022/08/20 08:02:50;;;;;;;13.88;7.13;;;;;;;28.12;42.28;93533.75;5063016;28;20021;-72
2022/08/20 08:05:17;;;;;;;10.88;7.25;;;;;;;28.21;42.92;93536.63;5063015;28;20017;-72
2022/08/20 08:07:44;;;;;;;12.65;6.65;;;;;;;28.32;43.60;93530.84;5063365;28;20307;-72
2022/08/20 08:10:14;;;;;;;10.20;6.45;;;;;;;28.44;42.23;93534.84;5063375;28;20017;-72
2022/08/20 08:12:43;;;;;;;9.25;6.97;;;;;;;28.52;42.21;93536.19;5063168;28;20250;-72
2022/08/20 08:15:14;;;;;;;11.75;6.78;;;;;;;28.60;42.22;93529.28;5063017;28;20043;-72
2022/08/20 08:17:40;;;;;;;12.63;7.63;;;;;;;28.63;41.38;93527.66;5062715;28;20092;-72
2022/08/20 08:20:11;;;;;;;14.63;6.28;;;;;;;28.58;41.54;93532.47;5062796;28;20021;-72
2022/08/20 08:22:36;;;;;;;21.80;7.07;;;;;;;28.53;42.29;93526.75;5062365;28;20315;-72
2022/08/20 08:25:02;;;;;;;15.02;6.47;;;;;;;28.59;41.24;93525.00;5062576;28;20073;-72
2022/08/20 08:27:31;;;;;;;13.48;7.28;;;;;;;28.69;42.05;93523.16;5062453;28;20036;-72
2022/08/20 08:30:01;;;;;;;15.32;7.07;;;;;;;28.81;41.81;93520.41;5062559;28;20096;-71
2022/08/20 08:32:29;;;;;;;10.13;7.00;;;;;;;28.89;41.35;93518.22;5062194;28;20295;-72
2022/08/20 08:34:54;;;;;;;10.40;7.40;;;;;;;28.90;41.68;93521.72;5062614;28;20152;-79
2022/08/20 08:37:20;;;;;;;10.98;6.35;;;;;;;28.97;40.25;93514.06;5061056;28;20310;-76
2022/08/20 08:39:45;;;;;;;16.60;7.10;;;;;;;29.06;40.42;93512.63;5063024;28;20017;-73
2022/08/20 08:42:41;;;;;;;14.43;6.93;;;;;;;29.13;40.18;93504.22;5062703;28;20036;-73
2022/08/20 08:45:09;;;;;;;9.43;6.63;;;;;;;29.17;39.68;93499.38;5062366;28;20046;-74
2022/08/20 08:47:37;;;;;;;16.58;6.88;;;;;;;29.19;39.02;93502.44;5062778;28;20307;-74
2022/08/20 08:50:05;;;;;;;12.90;6.25;;;;;;;29.24;39.24;93499.13;5061367;28;20343;-74
2022/08/20 08:52:34;;;;;;;19.25;7.15;;;;;;;29.34;39.19;93494.50;5062717;28;20037;-76
2022/08/20 08:55:04;;;;;;;15.00;6.68;;;;;;;29.37;39.69;93499.88;5062745;28;20054;-73
2022/08/20 08:57:30;;;;;;;11.63;6.22;;;;;;;29.47;39.14;93494.47;5062432;28;20134;-74
2022/08/20 09:00:08;;;;;;;16.25;6.75;;;;;;;29.56;38.27;93487.09;5062690;28;20100;-74
2022/08/20 09:02:37;;;;;;;10.23;6.22;;;;;;;29.66;38.55;93485.19;5061983;28;20230;-73
2022/08/20 09:05:12;;;;;;;15.38;6.72;;;;;;;29.77;38.46;93485.59;5062034;28;20029;-74
2022/08/20 09:07:38;;;;;;;10.48;6.78;;;;;;;29.89;38.41;93486.75;5062932;28;20095;-74
2022/08/20 09:10:05;;;;;;;11.40;6.35;;;;;;;29.94;37.43;93477.19;5060802;28;20032;-74
2022/08/20 09:12:31;;;;;;;7.55;6.25;;;;;;;29.93;37.98;93475.66;5060432;28;20100;-74
2022/08/20 09:14:57;;;;;;;15.50;6.53;;;;;;;29.98;37.50;93475.06;5060836;28;20051;-74
2022/08/20 09:17:23;;;;;;;11.50;6.30;;;;;;;30.07;37.44;93488.88;5060900;28;20103;-74
2022/08/20 09:19:50;;;;;;;10.43;6.65;;;;;;;30.14;37.54;93482.34;5060709;28;20025;-74
2022/08/20 09:22:19;;;;;;;17.73;7.45;;;;;;;30.23;37.72;93487.16;5060617;28;20048;-74
2022/08/20 09:24:44;;;;;;;12.63;6.32;;;;;;;30.31;37.51;93483.72;5061879;28;20029;-74
2022/08/20 09:27:10;;;;;;;10.77;6.45;;;;;;;30.36;36.01;93485.13;5062716;28;20135;-74
2022/08/20 09:29:37;;;;;;;16.50;7.97;;;;;;;30.37;36.39;93481.94;5062549;28;20024;-74
2022/08/20 09:32:10;;;;;;;9.73;6.20;;;;;;;30.41;36.41;93476.31;5062508;28;20029;-74
2022/08/20 09:34:42;;;;;;;14.23;6.60;;;;;;;30.48;36.69;93469.75;5062705;28;20028;-73
2022/08/20 09:37:08;;;;;;;;;;;;;;;30.55;37.25;93470.25;5062897;28;20032;-74
2022/08/20 09:39:34;;;;;;;10.43;6.20;;;;;;;30.59;36.17;93468.13;5062482;28;19900;-74
2022/08/20 09:42:29;;;;;;;8.32;6.18;;;;;;;30.69;35.95;93465.41;5062418;28;20071;-74
2022/08/20 09:44:55;;;;;;;10.05;5.95;;;;;;;30.81;35.54;93467.28;5061518;28;20388;-74
2022/08/20 09:47:21;;;;;;;12.68;6.80;;;;;;;30.85;34.69;93481.69;5062298;28;20032;-74
2022/08/20 09:49:47;;;;;;;11.85;6.00;;;;;;;30.86;34.08;93463.97;5063062;28;20083;-73
2022/08/20 09:52:41;;;;;;;14.85;6.25;;;;;;;30.91;35.04;93468.88;5066149;28;20032;-75
2022/08/20 09:55:32;;;;;;;12.88;6.68;;;;;;;30.96;35.15;93468.31;5065326;28;20351;-75
2022/08/20 09:58:05;;;;;;;8.10;5.68;;;;;;;31.01;33.24;93455.94;5062604;28;20029;-74
2022/08/20 10:00:30;;;;;;;16.10;7.40;;;;;;;30.91;34.72;93468.13;5065921;28;20036;-75
2022/08/20 10:02:56;;;;;;;14.43;7.22;;;;;;;30.94;33.86;93468.00;5065950;28;20088;-75
2022/08/20 10:05:21;;;;;;;10.82;6.10;;;;;;;31.09;34.58;93464.66;5065959;28;20025;-74
2022/08/20 10:07:47;;;;;;;10.23;5.85;;;;;;;31.22;33.79;93461.78;5065791;28;20021;-75
2022/08/20 10:10:14;;;;;;;10.15;6.05;;;;;;;31.31;32.26;93462.56;5065766;28;20029;-75
2022/08/20 10:12:40;;;;;;;10.40;6.70;;;;;;;31.27;32.97;93459.19;5065835;28;20017;-75
2022/08/20 10:15:07;;;;;;;7.95;5.97;;;;;;;31.50;32.73;93468.13;5065717;28;20032;-75
2022/08/20 10:17:35;;;;;;;12.68;6.57;;;;;;;31.73;31.65;93464.00;5065606;28;20028;-76
2022/08/20 10:20:00;;;;;;;9.18;6.00;;;;;;;31.85;31.83;93459.56;5065473;28;20290;-75
2022/08/20 10:22:26;;;;;;;11.10;6.35;;;;;;;32.06;33.05;93457.88;5065640;28;20021;-75
2022/08/20 10:24:51;;;;;;;10.70;5.75;;;;;;;32.19;30.02;93450.97;5065561;28;20020;-75
2022/08/20 10:27:17;;;;;;;12.60;5.78;;;;;;;32.16;30.23;93454.66;5065389;28;20021;-75
2022/08/20 10:29:42;;;;;;;9.43;6.05;;;;;;;32.10;30.05;93459.28;5065400;28;20753;-75
2022/08/20 10:32:13;;;;;;;10.25;6.20;;;;;;;32.03;30.54;93453.31;5065586;28;20335;-75
2022/08/20 10:34:41;;;;;;;12.18;5.47;;;;;;;31.99;30.83;93445.16;5065570;28;20029;-75
2022/08/20 10:37:07;;;;;;;12.80;6.18;;;;;;;32.03;30.75;93453.31;5065206;28;20377;-75
2022/08/20 10:39:33;;;;;;;10.43;5.47;;;;;;;32.19;30.45;93433.69;5065223;28;20036;-75
2022/08/20 10:41:59;;;;;;;9.98;5.97;;;;;;;32.31;30.43;93440.25;5065104;28;20092;-75
2022/08/20 10:44:24;;;;;;;8.68;5.97;;;;;;;32.28;30.19;93430.91;5065126;28;20091;-75
2022/08/20 10:46:50;;;;;;;13.50;6.15;;;;;;;32.40;31.18;93434.69;5065250;28;20258;-75
2022/08/20 10:49:15;;;;;;;10.52;4.95;;;;;;;32.51;30.36;93429.44;5065023;28;20020;-72
2022/08/20 10:51:41;;;;;;;23.02;6.05;;;;;;;32.47;30.11;93423.34;5063840;28;20024;-73
2022/08/20 10:54:06;;;;;;;10.88;5.43;;;;;;;32.55;30.38;93427.31;5064849;28;20016;-74
2022/08/20 10:56:32;;;;;;;8.98;5.20;;;;;;;32.74;30.17;93424.47;5064990;28;20215;-74
2022/08/20 10:58:57;;;;;;;7.10;5.05;;;;;;;33.01;30.04;93414.53;5064953;28;20020;-75
2022/08/20 11:01:23;;;;;;;13.65;5.78;;;;;;;33.15;29.62;93419.38;5064395;28;20008;-75
2022/08/20 11:03:48;;;;;;;10.45;5.95;;;;;;;33.27;29.15;93426.66;5064742;28;20035;-75
2022/08/20 11:06:14;;;;;;;7.43;5.65;;;;;;;33.31;28.23;93430.00;5064855;28;20021;-75
2022/08/20 11:08:39;;;;;;;9.38;5.65;;;;;;;33.44;28.80;93429.75;5064868;28;20023;-75
2022/08/20 11:11:05;;;;;;;10.32;6.22;;;;;;;33.63;28.68;93419.38;5064698;28;20063;-75
2022/08/20 11:13:32;;;;;;;11.18;5.55;;;;;;;33.75;27.99;93412.06;5064500;28;20092;-75
2022/08/20 11:15:58;;;;;;;9.18;6.10;;;;;;;33.76;27.67;93419.88;5064822;28;20028;-75
2022/08/20 11:18:23;;;;;;;17.00;6.10;;;;;;;33.64;27.29;93411.84;5064725;28;20021;-75
2022/08/20 11:20:49;;;;;;;8.40;6.07;;;;;;;33.58;29.75;93406.19;5064438;28;20051;-74
2022/08/20 11:23:14;;;;;;;12.55;5.68;;;;;;;33.56;29.34;93400.38;5064430;28;20033;-75
2022/08/20 11:25:40;;;;;;;12.52;5.93;;;;;;;33.66;28.70;93396.31;5064617;28;20223;-75
2022/08/20 11:28:05;;;;;;;12.45;5.90;;;;;;;33.72;28.58;93404.72;5064452;28;20044;-75
2022/08/20 11:30:33;;;;;;;9.15;5.70;;;;;;;33.87;27.92;93396.44;5064200;28;20032;-75
2022/08/20 11:32:59;;;;;;;8.55;5.78;;;;;;;33.95;28.27;93386.53;5064259;28;20091;-75
2022/08/20 11:35:26;;;;;;;8.50;5.72;;;;;;;34.08;28.28;93392.56;5064207;28;20039;-75